sensor_id;sensor_type;location;lat;lon;timestamp;temperature;humidity
2489;DHT22;1255;48.716;9.124;2022-10-31T00:01:23;11.60;99.90
2489;DHT22;1255;48.716;9.124;2022-10-31T00:03:50;11.60;99.90
2489;DHT22;1255;48.716;9.124;2022-10-31T00:06:17;11.60;99.90
2489;DHT22;1255;48.716;9.124;2022-10-31T00:08:44;11.60;99.90
2489;DHT22;1255;48.716;9.124;2022-10-31T00:11:12;11.60;99.90
2489;DHT22;1255;48.716;9.124;2022-10-31T00:13:39;11.60;99.90
2489;DHT22;1255;48.716;9.124;2022-10-31T00:16:13;11.60;99.90
2489;DHT22;1255;48.716;9.124;2022-10-31T00:18:40;11.60;99.90
2489;DHT22;1255;48.716;9.124;2022-10-31T00:21:07;11.50;99.90
2489;DHT22;1255;48.716;9.124;2022-10-31T00:23:33;11.50;99.90
2489;DHT22;1255;48.716;9.124;2022-10-31T00:26:01;11.50;99.90
2489;DHT22;1255;48.716;9.124;2022-10-31T00:28:29;11.50;99.90
2489;DHT22;1255;48.716;9.124;2022-10-31T00:30:58;11.40;99.90
2489;DHT22;1255;48.716;9.124;2022-10-31T00:33:25;11.40;99.90
2489;DHT22;1255;48.716;9.124;2022-10-31T00:35:52;11.40;99.90
2489;DHT22;1255;48.716;9.124;2022-10-31T00:38:19;11.40;99.90
2489;DHT22;1255;48.716;9.124;2022-10-31T00:40:45;11.40;99.90
2489;DHT22;1255;48.716;9.124;2022-10-31T00:43:12;11.40;99.90
2489;DHT22;1255;48.716;9.124;2022-10-31T00:45:41;11.40;99.90
2489;DHT22;1255;48.716;9.124;2022-10-31T00:48:07;11.30;99.90
2489;DHT22;1255;48.716;9.124;2022-10-31T00:50:34;11.30;99.90
2489;DHT22;1255;48.716;9.124;2022-10-31T00:53:01;11.30;99.90
2489;DHT22;1255;48.716;9.124;2022-10-31T00:55:27;11.30;99.90
2489;DHT22;1255;48.716;9.124;2022-10-31T00:57:54;11.30;99.90
2489;DHT22;1255;48.716;9.124;2022-10-31T01:00:21;11.20;99.90
2489;DHT22;1255;48.716;9.124;2022-10-31T01:02:49;11.20;99.90
2489;DHT22;1255;48.716;9.124;2022-10-31T01:05:16;11.20;99.90
2489;DHT22;1255;48.716;9.124;2022-10-31T01:07:43;11.20;99.90
2489;DHT22;1255;48.716;9.124;2022-10-31T01:10:10;11.10;99.90
2489;DHT22;1255;48.716;9.124;2022-10-31T01:12:38;11.10;99.90
2489;DHT22;1255;48.716;9.124;2022-10-31T01:15:06;11.10;99.90
2489;DHT22;1255;48.716;9.124;2022-10-31T01:17:33;11.10;99.90
2489;DHT22;1255;48.716;9.124;2022-10-31T01:20:01;11.10;99.90
2489;DHT22;1255;48.716;9.124;2022-10-31T01:22:28;11.10;99.90
2489;DHT22;1255;48.716;9.124;2022-10-31T01:24:54;11.00;99.90
2489;DHT22;1255;48.716;9.124;2022-10-31T01:27:21;11.00;99.90
2489;DHT22;1255;48.716;9.124;2022-10-31T01:29:48;11.00;99.90
2489;DHT22;1255;48.716;9.124;2022-10-31T01:32:15;11.00;99.90
2489;DHT22;1255;48.716;9.124;2022-10-31T01:34:41;11.00;99.90
2489;DHT22;1255;48.716;9.124;2022-10-31T01:37:09;11.00;99.90
2489;DHT22;1255;48.716;9.124;2022-10-31T01:39:36;11.00;99.90
2489;DHT22;1255;48.716;9.124;2022-10-31T01:42:03;10.90;99.90
2489;DHT22;1255;48.716;9.124;2022-10-31T01:44:52;10.90;99.90
2489;DHT22;1255;48.716;9.124;2022-10-31T01:47:25;10.90;99.90
2489;DHT22;1255;48.716;9.124;2022-10-31T01:49:56;10.90;99.90
2489;DHT22;1255;48.716;9.124;2022-10-31T01:52:26;10.90;99.90
2489;DHT22;1255;48.716;9.124;2022-10-31T01:54:58;10.90;99.90
2489;DHT22;1255;48.716;9.124;2022-10-31T01:57:26;10.90;99.90
2489;DHT22;1255;48.716;9.124;2022-10-31T01:59:56;10.90;99.90
2489;DHT22;1255;48.716;9.124;2022-10-31T02:02:24;10.90;99.90
2489;DHT22;1255;48.716;9.124;2022-10-31T02:04:52;10.80;99.90
2489;DHT22;1255;48.716;9.124;2022-10-31T02:07:23;10.80;99.90
2489;DHT22;1255;48.716;9.124;2022-10-31T02:09:53;10.70;99.90
2489;DHT22;1255;48.716;9.124;2022-10-31T02:12:20;10.70;99.90
2489;DHT22;1255;48.716;9.124;2022-10-31T02:14:47;10.70;99.90
2489;DHT22;1255;48.716;9.124;2022-10-31T02:17:14;10.70;99.90
2489;DHT22;1255;48.716;9.124;2022-10-31T02:19:48;10.70;99.90
2489;DHT22;1255;48.716;9.124;2022-10-31T02:22:23;10.70;99.90
2489;DHT22;1255;48.716;9.124;2022-10-31T02:25:16;10.60;99.90
2489;DHT22;1255;48.716;9.124;2022-10-31T02:28:10;10.60;99.90
2489;DHT22;1255;48.716;9.124;2022-10-31T02:30:59;10.60;99.90
2489;DHT22;1255;48.716;9.124;2022-10-31T02:33:31;10.60;99.90
2489;DHT22;1255;48.716;9.124;2022-10-31T02:36:07;10.60;99.90
2489;DHT22;1255;48.716;9.124;2022-10-31T02:38:43;10.60;99.90
2489;DHT22;1255;48.716;9.124;2022-10-31T02:41:18;10.60;99.90
2489;DHT22;1255;48.716;9.124;2022-10-31T02:43:56;10.50;99.90
2489;DHT22;1255;48.716;9.124;2022-10-31T02:46:34;10.50;99.90
2489;DHT22;1255;48.716;9.124;2022-10-31T02:49:07;10.50;99.90
2489;DHT22;1255;48.716;9.124;2022-10-31T02:51:34;10.50;99.90
2489;DHT22;1255;48.716;9.124;2022-10-31T02:54:02;10.50;99.90
2489;DHT22;1255;48.716;9.124;2022-10-31T02:56:28;10.50;99.90
2489;DHT22;1255;48.716;9.124;2022-10-31T02:58:58;10.50;99.90
2489;DHT22;1255;48.716;9.124;2022-10-31T03:02:00;10.50;99.90
2489;DHT22;1255;48.716;9.124;2022-10-31T03:04:47;10.40;99.90
2489;DHT22;1255;48.716;9.124;2022-10-31T03:07:25;10.40;99.90
2489;DHT22;1255;48.716;9.124;2022-10-31T03:10:02;10.40;99.90
2489;DHT22;1255;48.716;9.124;2022-10-31T03:12:35;10.40;99.90
2489;DHT22;1255;48.716;9.124;2022-10-31T03:15:12;10.30;99.90
2489;DHT22;1255;48.716;9.124;2022-10-31T03:17:49;10.40;99.90
2489;DHT22;1255;48.716;9.124;2022-10-31T03:20:19;10.30;99.90
2489;DHT22;1255;48.716;9.124;2022-10-31T03:22:47;10.30;99.90
2489;DHT22;1255;48.716;9.124;2022-10-31T03:25:14;10.30;99.90
2489;DHT22;1255;48.716;9.124;2022-10-31T03:27:42;10.30;99.90
2489;DHT22;1255;48.716;9.124;2022-10-31T03:30:11;10.30;99.90
2489;DHT22;1255;48.716;9.124;2022-10-31T03:32:42;10.20;99.90
2489;DHT22;1255;48.716;9.124;2022-10-31T03:35:13;10.20;99.90
2489;DHT22;1255;48.716;9.124;2022-10-31T03:37:42;10.20;99.90
2489;DHT22;1255;48.716;9.124;2022-10-31T03:40:10;10.20;99.90
2489;DHT22;1255;48.716;9.124;2022-10-31T03:42:41;10.20;99.90
2489;DHT22;1255;48.716;9.124;2022-10-31T03:45:12;10.20;99.90
2489;DHT22;1255;48.716;9.124;2022-10-31T03:47:42;10.20;99.90
2489;DHT22;1255;48.716;9.124;2022-10-31T03:50:11;10.10;99.90
2489;DHT22;1255;48.716;9.124;2022-10-31T03:52:43;10.10;99.90
2489;DHT22;1255;48.716;9.124;2022-10-31T03:55:17;10.10;99.90
2489;DHT22;1255;48.716;9.124;2022-10-31T03:57:48;10.10;99.90
2489;DHT22;1255;48.716;9.124;2022-10-31T04:00:18;10.10;99.90
2489;DHT22;1255;48.716;9.124;2022-10-31T04:02:50;10.00;99.90
2489;DHT22;1255;48.716;9.124;2022-10-31T04:05:19;10.10;99.90
2489;DHT22;1255;48.716;9.124;2022-10-31T04:07:49;10.00;99.90
2489;DHT22;1255;48.716;9.124;2022-10-31T04:10:17;10.00;99.90
2489;DHT22;1255;48.716;9.124;2022-10-31T04:12:51;10.00;99.90
2489;DHT22;1255;48.716;9.124;2022-10-31T04:15:20;10.00;99.90
2489;DHT22;1255;48.716;9.124;2022-10-31T04:17:50;10.00;99.90
2489;DHT22;1255;48.716;9.124;2022-10-31T04:20:28;10.00;99.90
2489;DHT22;1255;48.716;9.124;2022-10-31T04:22:55;10.00;99.90
2489;DHT22;1255;48.716;9.124;2022-10-31T04:25:22;10.00;99.90
2489;DHT22;1255;48.716;9.124;2022-10-31T04:27:48;10.00;99.90
2489;DHT22;1255;48.716;9.124;2022-10-31T04:30:15;10.00;99.90
2489;DHT22;1255;48.716;9.124;2022-10-31T04:32:42;10.00;99.90
2489;DHT22;1255;48.716;9.124;2022-10-31T04:35:10;10.00;99.90
2489;DHT22;1255;48.716;9.124;2022-10-31T04:37:37;9.90;99.90
2489;DHT22;1255;48.716;9.124;2022-10-31T04:40:05;9.90;99.90
2489;DHT22;1255;48.716;9.124;2022-10-31T04:42:31;10.00;99.90
2489;DHT22;1255;48.716;9.124;2022-10-31T04:44:58;9.90;99.90
2489;DHT22;1255;48.716;9.124;2022-10-31T04:47:25;9.90;99.90
2489;DHT22;1255;48.716;9.124;2022-10-31T04:49:52;9.80;99.90
2489;DHT22;1255;48.716;9.124;2022-10-31T04:52:20;9.90;99.90
2489;DHT22;1255;48.716;9.124;2022-10-31T04:54:46;9.80;99.90
2489;DHT22;1255;48.716;9.124;2022-10-31T04:57:13;9.80;99.90
2489;DHT22;1255;48.716;9.124;2022-10-31T04:59:40;9.80;99.90
2489;DHT22;1255;48.716;9.124;2022-10-31T05:02:06;9.70;99.90
2489;DHT22;1255;48.716;9.124;2022-10-31T05:04:33;9.80;99.90
2489;DHT22;1255;48.716;9.124;2022-10-31T05:07:00;9.80;99.90
2489;DHT22;1255;48.716;9.124;2022-10-31T05:09:28;9.80;99.90
2489;DHT22;1255;48.716;9.124;2022-10-31T05:11:54;9.70;99.90
2489;DHT22;1255;48.716;9.124;2022-10-31T05:14:21;9.70;99.90
2489;DHT22;1255;48.716;9.124;2022-10-31T05:16:48;9.70;99.90
2489;DHT22;1255;48.716;9.124;2022-10-31T05:19:15;9.60;99.90
2489;DHT22;1255;48.716;9.124;2022-10-31T05:21:41;9.60;99.90
2489;DHT22;1255;48.716;9.124;2022-10-31T05:24:08;9.70;99.90
2489;DHT22;1255;48.716;9.124;2022-10-31T05:26:37;9.70;99.90
2489;DHT22;1255;48.716;9.124;2022-10-31T05:29:03;9.60;99.90
2489;DHT22;1255;48.716;9.124;2022-10-31T05:31:30;9.60;99.90
2489;DHT22;1255;48.716;9.124;2022-10-31T05:33:57;9.60;99.90
2489;DHT22;1255;48.716;9.124;2022-10-31T05:36:24;9.50;99.90
2489;DHT22;1255;48.716;9.124;2022-10-31T05:38:51;9.50;99.90
2489;DHT22;1255;48.716;9.124;2022-10-31T05:41:17;9.50;99.90
2489;DHT22;1255;48.716;9.124;2022-10-31T05:43:46;9.40;99.90
2489;DHT22;1255;48.716;9.124;2022-10-31T05:46:13;9.40;99.90
2489;DHT22;1255;48.716;9.124;2022-10-31T05:48:39;9.40;99.90
2489;DHT22;1255;48.716;9.124;2022-10-31T05:51:06;9.40;99.90
2489;DHT22;1255;48.716;9.124;2022-10-31T05:53:33;9.40;99.90
2489;DHT22;1255;48.716;9.124;2022-10-31T05:56:00;9.40;99.90
2489;DHT22;1255;48.716;9.124;2022-10-31T05:58:27;9.40;99.90
2489;DHT22;1255;48.716;9.124;2022-10-31T06:00:55;9.30;99.90
2489;DHT22;1255;48.716;9.124;2022-10-31T06:03:22;9.30;99.90
2489;DHT22;1255;48.716;9.124;2022-10-31T06:05:49;9.30;99.90
2489;DHT22;1255;48.716;9.124;2022-10-31T06:08:18;9.30;99.90
2489;DHT22;1255;48.716;9.124;2022-10-31T06:10:45;9.30;99.90
2489;DHT22;1255;48.716;9.124;2022-10-31T06:13:12;9.20;99.90
2489;DHT22;1255;48.716;9.124;2022-10-31T06:15:40;9.30;99.90
2489;DHT22;1255;48.716;9.124;2022-10-31T06:18:09;9.20;99.90
2489;DHT22;1255;48.716;9.124;2022-10-31T06:20:36;9.20;99.90
2489;DHT22;1255;48.716;9.124;2022-10-31T06:23:03;9.30;99.90
2489;DHT22;1255;48.716;9.124;2022-10-31T06:25:32;9.20;99.90
2489;DHT22;1255;48.716;9.124;2022-10-31T06:27:59;9.30;99.90
2489;DHT22;1255;48.716;9.124;2022-10-31T06:30:26;9.30;99.90
2489;DHT22;1255;48.716;9.124;2022-10-31T06:32:53;9.30;99.90
2489;DHT22;1255;48.716;9.124;2022-10-31T06:35:21;9.30;99.90
2489;DHT22;1255;48.716;9.124;2022-10-31T06:37:52;9.30;99.90
2489;DHT22;1255;48.716;9.124;2022-10-31T06:40:19;9.40;99.90
2489;DHT22;1255;48.716;9.124;2022-10-31T06:42:46;9.40;99.90
2489;DHT22;1255;48.716;9.124;2022-10-31T06:45:13;9.40;99.90
2489;DHT22;1255;48.716;9.124;2022-10-31T06:47:40;9.40;99.90
2489;DHT22;1255;48.716;9.124;2022-10-31T06:50:07;9.50;99.90
2489;DHT22;1255;48.716;9.124;2022-10-31T06:52:35;9.50;99.90
2489;DHT22;1255;48.716;9.124;2022-10-31T06:55:02;9.50;99.90
2489;DHT22;1255;48.716;9.124;2022-10-31T06:57:29;9.50;99.90
2489;DHT22;1255;48.716;9.124;2022-10-31T06:59:56;9.60;99.90
2489;DHT22;1255;48.716;9.124;2022-10-31T07:02:23;9.60;99.90
2489;DHT22;1255;48.716;9.124;2022-10-31T07:04:49;9.70;99.90
2489;DHT22;1255;48.716;9.124;2022-10-31T07:07:16;9.90;99.90
2489;DHT22;1255;48.716;9.124;2022-10-31T07:09:48;10.10;99.90
2489;DHT22;1255;48.716;9.124;2022-10-31T07:12:15;10.20;99.90
2489;DHT22;1255;48.716;9.124;2022-10-31T07:14:42;10.40;99.90
2489;DHT22;1255;48.716;9.124;2022-10-31T07:17:09;10.40;99.90
2489;DHT22;1255;48.716;9.124;2022-10-31T07:19:41;10.40;99.90
2489;DHT22;1255;48.716;9.124;2022-10-31T07:22:14;10.40;99.90
2489;DHT22;1255;48.716;9.124;2022-10-31T07:24:41;10.50;99.90
2489;DHT22;1255;48.716;9.124;2022-10-31T07:27:09;10.60;99.90
2489;DHT22;1255;48.716;9.124;2022-10-31T07:29:36;10.50;99.90
2489;DHT22;1255;48.716;9.124;2022-10-31T07:32:03;10.60;99.90
2489;DHT22;1255;48.716;9.124;2022-10-31T07:34:30;10.50;99.90
2489;DHT22;1255;48.716;9.124;2022-10-31T07:36:57;10.50;99.90
2489;DHT22;1255;48.716;9.124;2022-10-31T07:40:07;10.60;99.90
2489;DHT22;1255;48.716;9.124;2022-10-31T07:42:42;10.70;99.90
2489;DHT22;1255;48.716;9.124;2022-10-31T07:45:10;10.80;99.90
2489;DHT22;1255;48.716;9.124;2022-10-31T07:47:38;10.90;99.90
2489;DHT22;1255;48.716;9.124;2022-10-31T07:50:06;10.90;99.90
2489;DHT22;1255;48.716;9.124;2022-10-31T07:52:33;11.00;99.90
2489;DHT22;1255;48.716;9.124;2022-10-31T07:55:00;11.10;99.90
2489;DHT22;1255;48.716;9.124;2022-10-31T07:57:27;11.20;99.90
2489;DHT22;1255;48.716;9.124;2022-10-31T07:59:56;11.30;99.90
2489;DHT22;1255;48.716;9.124;2022-10-31T08:02:23;11.40;99.90
2489;DHT22;1255;48.716;9.124;2022-10-31T08:04:50;11.50;99.90
2489;DHT22;1255;48.716;9.124;2022-10-31T08:07:17;11.70;99.90
2489;DHT22;1255;48.716;9.124;2022-10-31T08:09:44;11.90;99.90
2489;DHT22;1255;48.716;9.124;2022-10-31T08:12:11;12.00;99.90
2489;DHT22;1255;48.716;9.124;2022-10-31T08:14:38;12.20;99.90
2489;DHT22;1255;48.716;9.124;2022-10-31T08:17:06;12.30;99.90
2489;DHT22;1255;48.716;9.124;2022-10-31T08:19:33;12.50;99.90
2489;DHT22;1255;48.716;9.124;2022-10-31T08:21:59;12.60;99.90
2489;DHT22;1255;48.716;9.124;2022-10-31T08:24:26;12.70;99.90
2489;DHT22;1255;48.716;9.124;2022-10-31T08:26:53;12.90;99.90
2489;DHT22;1255;48.716;9.124;2022-10-31T08:29:19;13.00;99.90
2489;DHT22;1255;48.716;9.124;2022-10-31T08:31:46;13.00;99.90
2489;DHT22;1255;48.716;9.124;2022-10-31T08:34:14;13.10;99.90
2489;DHT22;1255;48.716;9.124;2022-10-31T08:36:41;13.20;99.90
2489;DHT22;1255;48.716;9.124;2022-10-31T08:39:10;13.30;99.90
2489;DHT22;1255;48.716;9.124;2022-10-31T08:41:37;13.30;99.90
2489;DHT22;1255;48.716;9.124;2022-10-31T08:44:04;13.40;99.90
2489;DHT22;1255;48.716;9.124;2022-10-31T08:46:30;13.50;99.90
2489;DHT22;1255;48.716;9.124;2022-10-31T08:48:58;13.60;99.90
2489;DHT22;1255;48.716;9.124;2022-10-31T08:51:26;13.70;99.90
2489;DHT22;1255;48.716;9.124;2022-10-31T08:53:52;13.80;99.90
2489;DHT22;1255;48.716;9.124;2022-10-31T08:56:19;13.90;99.90
2489;DHT22;1255;48.716;9.124;2022-10-31T08:58:47;14.00;99.90
2489;DHT22;1255;48.716;9.124;2022-10-31T09:01:14;14.10;99.90
2489;DHT22;1255;48.716;9.124;2022-10-31T09:03:41;14.20;99.90
2489;DHT22;1255;48.716;9.124;2022-10-31T09:06:07;14.20;99.90
2489;DHT22;1255;48.716;9.124;2022-10-31T09:08:36;14.30;99.90
2489;DHT22;1255;48.716;9.124;2022-10-31T09:11:04;14.40;99.90
2489;DHT22;1255;48.716;9.124;2022-10-31T09:13:32;14.40;99.90
2489;DHT22;1255;48.716;9.124;2022-10-31T09:15:58;14.50;99.90
2489;DHT22;1255;48.716;9.124;2022-10-31T09:18:25;14.50;99.90
2489;DHT22;1255;48.716;9.124;2022-10-31T09:20:53;14.60;99.90
2489;DHT22;1255;48.716;9.124;2022-10-31T09:23:22;14.70;99.90
2489;DHT22;1255;48.716;9.124;2022-10-31T09:25:51;14.80;99.90
2489;DHT22;1255;48.716;9.124;2022-10-31T09:28:20;14.90;99.90
2489;DHT22;1255;48.716;9.124;2022-10-31T09:30:48;14.90;99.90
2489;DHT22;1255;48.716;9.124;2022-10-31T09:33:15;14.90;99.90
2489;DHT22;1255;48.716;9.124;2022-10-31T09:35:42;15.00;99.90
2489;DHT22;1255;48.716;9.124;2022-10-31T09:38:12;15.10;99.90
2489;DHT22;1255;48.716;9.124;2022-10-31T09:40:41;15.10;99.90
2489;DHT22;1255;48.716;9.124;2022-10-31T09:43:14;15.10;99.90
2489;DHT22;1255;48.716;9.124;2022-10-31T09:45:51;15.20;99.90
2489;DHT22;1255;48.716;9.124;2022-10-31T09:48:34;15.30;99.90
2489;DHT22;1255;48.716;9.124;2022-10-31T09:51:07;15.40;99.90
2489;DHT22;1255;48.716;9.124;2022-10-31T09:53:38;15.50;99.90
2489;DHT22;1255;48.716;9.124;2022-10-31T09:56:08;15.60;99.90
2489;DHT22;1255;48.716;9.124;2022-10-31T09:58:41;15.70;99.90
2489;DHT22;1255;48.716;9.124;2022-10-31T10:01:29;15.90;99.90
2489;DHT22;1255;48.716;9.124;2022-10-31T10:04:01;16.00;99.90
2489;DHT22;1255;48.716;9.124;2022-10-31T10:06:29;16.10;99.90
2489;DHT22;1255;48.716;9.124;2022-10-31T10:08:59;16.20;99.90
2489;DHT22;1255;48.716;9.124;2022-10-31T10:11:51;16.30;99.90
2489;DHT22;1255;48.716;9.124;2022-10-31T10:14:30;16.30;99.90
2489;DHT22;1255;48.716;9.124;2022-10-31T10:17:11;16.40;99.90
2489;DHT22;1255;48.716;9.124;2022-10-31T10:19:53;16.50;99.90
2489;DHT22;1255;48.716;9.124;2022-10-31T10:22:31;16.60;99.90
2489;DHT22;1255;48.716;9.124;2022-10-31T10:25:15;16.70;99.90
2489;DHT22;1255;48.716;9.124;2022-10-31T10:27:49;16.80;99.90
2489;DHT22;1255;48.716;9.124;2022-10-31T10:30:19;16.90;99.90
2489;DHT22;1255;48.716;9.124;2022-10-31T10:32:48;17.00;99.90
2489;DHT22;1255;48.716;9.124;2022-10-31T10:35:21;17.00;99.90
2489;DHT22;1255;48.716;9.124;2022-10-31T10:37:50;17.00;99.90
2489;DHT22;1255;48.716;9.124;2022-10-31T10:40:20;17.00;99.90
2489;DHT22;1255;48.716;9.124;2022-10-31T10:42:56;16.90;99.90
2489;DHT22;1255;48.716;9.124;2022-10-31T10:45:44;16.90;99.90
2489;DHT22;1255;48.716;9.124;2022-10-31T10:48:38;16.90;99.90
2489;DHT22;1255;48.716;9.124;2022-10-31T10:51:10;16.90;99.90
2489;DHT22;1255;48.716;9.124;2022-10-31T10:53:44;16.90;99.90
2489;DHT22;1255;48.716;9.124;2022-10-31T10:56:35;16.80;99.90
2489;DHT22;1255;48.716;9.124;2022-10-31T10:59:04;16.80;99.90
2489;DHT22;1255;48.716;9.124;2022-10-31T11:01:32;16.80;99.90
2489;DHT22;1255;48.716;9.124;2022-10-31T11:03:59;16.70;99.90
2489;DHT22;1255;48.716;9.124;2022-10-31T11:06:27;16.70;99.90
2489;DHT22;1255;48.716;9.124;2022-10-31T11:08:54;16.80;99.90
2489;DHT22;1255;48.716;9.124;2022-10-31T11:11:26;16.90;99.90
2489;DHT22;1255;48.716;9.124;2022-10-31T11:13:59;17.00;99.90
2489;DHT22;1255;48.716;9.124;2022-10-31T11:16:33;17.30;99.90
2489;DHT22;1255;48.716;9.124;2022-10-31T11:19:13;17.70;99.90
2489;DHT22;1255;48.716;9.124;2022-10-31T11:21:41;18.00;99.90
2489;DHT22;1255;48.716;9.124;2022-10-31T11:24:14;18.20;99.90
2489;DHT22;1255;48.716;9.124;2022-10-31T11:26:43;18.40;99.90
2489;DHT22;1255;48.716;9.124;2022-10-31T11:29:15;18.50;99.90
2489;DHT22;1255;48.716;9.124;2022-10-31T11:31:44;18.50;99.90
2489;DHT22;1255;48.716;9.124;2022-10-31T11:34:24;18.60;99.90
2489;DHT22;1255;48.716;9.124;2022-10-31T11:36:53;18.70;99.90
2489;DHT22;1255;48.716;9.124;2022-10-31T11:39:22;18.80;99.90
2489;DHT22;1255;48.716;9.124;2022-10-31T11:41:51;18.80;99.90
2489;DHT22;1255;48.716;9.124;2022-10-31T11:44:20;18.90;99.90
2489;DHT22;1255;48.716;9.124;2022-10-31T11:46:51;18.90;99.90
2489;DHT22;1255;48.716;9.124;2022-10-31T11:49:27;18.90;99.90
2489;DHT22;1255;48.716;9.124;2022-10-31T11:51:57;18.90;99.90
2489;DHT22;1255;48.716;9.124;2022-10-31T11:54:28;18.90;99.90
2489;DHT22;1255;48.716;9.124;2022-10-31T11:56:56;18.80;99.90
2489;DHT22;1255;48.716;9.124;2022-10-31T11:59:26;18.70;99.90
2489;DHT22;1255;48.716;9.124;2022-10-31T12:01:56;18.70;99.90
2489;DHT22;1255;48.716;9.124;2022-10-31T12:04:33;18.50;99.90
2489;DHT22;1255;48.716;9.124;2022-10-31T12:07:01;18.40;99.90
2489;DHT22;1255;48.716;9.124;2022-10-31T12:09:29;18.30;99.90
2489;DHT22;1255;48.716;9.124;2022-10-31T12:12:14;18.30;99.90
2489;DHT22;1255;48.716;9.124;2022-10-31T12:14:54;18.30;99.90
2489;DHT22;1255;48.716;9.124;2022-10-31T12:17:29;18.40;99.90
2489;DHT22;1255;48.716;9.124;2022-10-31T12:20:05;18.50;99.90
2489;DHT22;1255;48.716;9.124;2022-10-31T12:22:43;18.60;99.90
2489;DHT22;1255;48.716;9.124;2022-10-31T12:25:28;18.70;99.90
2489;DHT22;1255;48.716;9.124;2022-10-31T12:28:04;18.80;99.90
2489;DHT22;1255;48.716;9.124;2022-10-31T12:30:46;18.80;99.90
2489;DHT22;1255;48.716;9.124;2022-10-31T12:33:43;18.70;99.90
2489;DHT22;1255;48.716;9.124;2022-10-31T12:36:32;18.60;99.90
2489;DHT22;1255;48.716;9.124;2022-10-31T12:39:21;18.40;99.90
2489;DHT22;1255;48.716;9.124;2022-10-31T12:41:52;18.20;99.90
2489;DHT22;1255;48.716;9.124;2022-10-31T12:44:47;18.10;99.90
2489;DHT22;1255;48.716;9.124;2022-10-31T12:47:43;18.00;99.90
2489;DHT22;1255;48.716;9.124;2022-10-31T12:50:22;17.80;99.90
2489;DHT22;1255;48.716;9.124;2022-10-31T12:52:59;17.80;99.90
2489;DHT22;1255;48.716;9.124;2022-10-31T12:55:48;17.70;99.90
2489;DHT22;1255;48.716;9.124;2022-10-31T12:58:22;17.70;99.90
2489;DHT22;1255;48.716;9.124;2022-10-31T13:00:58;17.60;99.90
2489;DHT22;1255;48.716;9.124;2022-10-31T13:03:32;17.60;99.90
2489;DHT22;1255;48.716;9.124;2022-10-31T13:06:04;17.50;99.90
2489;DHT22;1255;48.716;9.124;2022-10-31T13:08:36;17.50;99.90
2489;DHT22;1255;48.716;9.124;2022-10-31T13:11:10;17.40;99.90
2489;DHT22;1255;48.716;9.124;2022-10-31T13:13:41;17.40;99.90
2489;DHT22;1255;48.716;9.124;2022-10-31T13:16:13;17.40;99.90
2489;DHT22;1255;48.716;9.124;2022-10-31T13:18:44;17.40;99.90
2489;DHT22;1255;48.716;9.124;2022-10-31T13:21:18;17.40;99.90
2489;DHT22;1255;48.716;9.124;2022-10-31T13:23:48;17.40;99.90
2489;DHT22;1255;48.716;9.124;2022-10-31T13:26:20;17.40;99.90
2489;DHT22;1255;48.716;9.124;2022-10-31T13:28:52;17.40;99.90
2489;DHT22;1255;48.716;9.124;2022-10-31T13:31:21;17.40;99.90
2489;DHT22;1255;48.716;9.124;2022-10-31T13:33:51;17.40;99.90
2489;DHT22;1255;48.716;9.124;2022-10-31T13:36:25;17.50;99.90
2489;DHT22;1255;48.716;9.124;2022-10-31T13:38:57;17.70;99.90
2489;DHT22;1255;48.716;9.124;2022-10-31T13:41:34;18.20;99.90
2489;DHT22;1255;48.716;9.124;2022-10-31T13:44:11;18.60;99.90
2489;DHT22;1255;48.716;9.124;2022-10-31T13:46:40;18.90;99.90
2489;DHT22;1255;48.716;9.124;2022-10-31T13:49:24;19.00;99.90
2489;DHT22;1255;48.716;9.124;2022-10-31T13:51:53;19.00;99.90
2489;DHT22;1255;48.716;9.124;2022-10-31T13:54:33;18.90;99.90
2489;DHT22;1255;48.716;9.124;2022-10-31T13:57:00;18.90;99.90
2489;DHT22;1255;48.716;9.124;2022-10-31T13:59:28;18.90;99.90
2489;DHT22;1255;48.716;9.124;2022-10-31T14:01:58;19.00;99.90
2489;DHT22;1255;48.716;9.124;2022-10-31T14:04:31;19.00;99.90
2489;DHT22;1255;48.716;9.124;2022-10-31T14:07:08;18.90;99.90
2489;DHT22;1255;48.716;9.124;2022-10-31T14:09:39;18.80;99.90
2489;DHT22;1255;48.716;9.124;2022-10-31T14:12:08;18.70;99.90
2489;DHT22;1255;48.716;9.124;2022-10-31T14:14:46;18.70;99.90
2489;DHT22;1255;48.716;9.124;2022-10-31T14:17:22;18.60;99.90
2489;DHT22;1255;48.716;9.124;2022-10-31T14:22:46;18.60;99.90
2489;DHT22;1255;48.716;9.124;2022-10-31T14:25:26;18.50;99.90
2489;DHT22;1255;48.716;9.124;2022-10-31T14:27:53;18.40;99.90
2489;DHT22;1255;48.716;9.124;2022-10-31T14:30:22;18.50;99.90
2489;DHT22;1255;48.716;9.124;2022-10-31T14:32:53;18.60;99.90
2489;DHT22;1255;48.716;9.124;2022-10-31T14:35:23;18.60;99.90
2489;DHT22;1255;48.716;9.124;2022-10-31T14:38:18;18.60;99.90
2489;DHT22;1255;48.716;9.124;2022-10-31T14:40:55;18.50;99.90
2489;DHT22;1255;48.716;9.124;2022-10-31T14:43:39;18.50;99.90
2489;DHT22;1255;48.716;9.124;2022-10-31T14:46:16;18.40;99.90
2489;DHT22;1255;48.716;9.124;2022-10-31T14:49:01;18.30;99.90
2489;DHT22;1255;48.716;9.124;2022-10-31T14:51:35;18.20;99.90
2489;DHT22;1255;48.716;9.124;2022-10-31T14:54:05;18.10;99.90
2489;DHT22;1255;48.716;9.124;2022-10-31T14:56:34;18.10;99.90
2489;DHT22;1255;48.716;9.124;2022-10-31T14:59:06;18.00;99.90
2489;DHT22;1255;48.716;9.124;2022-10-31T15:01:35;17.90;99.90
2489;DHT22;1255;48.716;9.124;2022-10-31T15:04:05;17.80;99.90
2489;DHT22;1255;48.716;9.124;2022-10-31T15:06:42;17.80;99.90
2489;DHT22;1255;48.716;9.124;2022-10-31T15:09:23;17.70;99.90
2489;DHT22;1255;48.716;9.124;2022-10-31T15:11:50;17.60;99.90
2489;DHT22;1255;48.716;9.124;2022-10-31T15:14:25;17.50;99.90
2489;DHT22;1255;48.716;9.124;2022-10-31T15:16:52;17.40;99.90
2489;DHT22;1255;48.716;9.124;2022-10-31T15:19:22;17.30;99.90
2489;DHT22;1255;48.716;9.124;2022-10-31T15:21:51;17.20;99.90
2489;DHT22;1255;48.716;9.124;2022-10-31T15:24:18;17.00;99.90
2489;DHT22;1255;48.716;9.124;2022-10-31T15:26:50;16.90;99.90
2489;DHT22;1255;48.716;9.124;2022-10-31T15:29:18;16.80;99.90
2489;DHT22;1255;48.716;9.124;2022-10-31T15:31:51;16.70;99.90
2489;DHT22;1255;48.716;9.124;2022-10-31T15:34:22;16.60;99.90
2489;DHT22;1255;48.716;9.124;2022-10-31T15:36:49;16.50;99.90
2489;DHT22;1255;48.716;9.124;2022-10-31T15:39:16;16.40;99.90
2489;DHT22;1255;48.716;9.124;2022-10-31T15:41:50;16.30;99.90
2489;DHT22;1255;48.716;9.124;2022-10-31T15:44:21;16.10;99.90
2489;DHT22;1255;48.716;9.124;2022-10-31T15:46:54;16.10;99.90
2489;DHT22;1255;48.716;9.124;2022-10-31T15:49:32;15.90;99.90
2489;DHT22;1255;48.716;9.124;2022-10-31T15:52:04;15.90;99.90
2489;DHT22;1255;48.716;9.124;2022-10-31T15:54:32;15.80;99.90
2489;DHT22;1255;48.716;9.124;2022-10-31T15:57:01;15.70;99.90
2489;DHT22;1255;48.716;9.124;2022-10-31T15:59:28;15.70;99.90
2489;DHT22;1255;48.716;9.124;2022-10-31T16:02:00;15.60;99.90
2489;DHT22;1255;48.716;9.124;2022-10-31T16:04:27;15.50;99.90
2489;DHT22;1255;48.716;9.124;2022-10-31T16:07:00;15.40;99.90
2489;DHT22;1255;48.716;9.124;2022-10-31T16:09:27;15.40;99.90
2489;DHT22;1255;48.716;9.124;2022-10-31T16:11:55;15.30;99.90
2489;DHT22;1255;48.716;9.124;2022-10-31T16:14:26;15.30;99.90
2489;DHT22;1255;48.716;9.124;2022-10-31T16:16:55;15.20;99.90
2489;DHT22;1255;48.716;9.124;2022-10-31T16:19:25;15.10;99.90
2489;DHT22;1255;48.716;9.124;2022-10-31T16:21:54;15.10;99.90
2489;DHT22;1255;48.716;9.124;2022-10-31T16:24:24;15.00;99.90
2489;DHT22;1255;48.716;9.124;2022-10-31T16:26:53;14.90;99.90
2489;DHT22;1255;48.716;9.124;2022-10-31T16:29:33;14.80;99.90
2489;DHT22;1255;48.716;9.124;2022-10-31T16:32:00;14.70;99.90